sensor_id;sensor_type;location;lat;lon;timestamp;P1;durP1;ratioP1;P2;durP2;ratioP2
3881;SDS011;1956;53.482;10.238;2022-12-18T00:00:38;23.63;;;13.50;;
3881;SDS011;1956;53.482;10.238;2022-12-18T00:05:49;23.97;;;14.30;;
3881;SDS011;1956;53.482;10.238;2022-12-18T00:10:50;25.57;;;14.30;;
3881;SDS011;1956;53.482;10.238;2022-12-18T00:15:51;30.47;;;13.30;;
3881;SDS011;1956;53.482;10.238;2022-12-18T00:20:51;27.10;;;14.00;;
3881;SDS011;1956;53.482;10.238;2022-12-18T00:25:51;24.00;;;13.40;;
3881;SDS011;1956;53.482;10.238;2022-12-18T00:30:59;23.07;;;14.30;;
3881;SDS011;1956;53.482;10.238;2022-12-18T00:36:06;23.10;;;12.97;;
3881;SDS011;1956;53.482;10.238;2022-12-18T00:41:17;20.70;;;11.97;;
3881;SDS011;1956;53.482;10.238;2022-12-18T00:46:38;22.70;;;12.70;;
3881;SDS011;1956;53.482;10.238;2022-12-18T00:51:38;25.70;;;12.60;;
3881;SDS011;1956;53.482;10.238;2022-12-18T00:56:39;27.10;;;12.87;;
3881;SDS011;1956;53.482;10.238;2022-12-18T01:01:39;24.27;;;11.93;;
3881;SDS011;1956;53.482;10.238;2022-12-18T01:06:40;32.43;;;12.23;;
3881;SDS011;1956;53.482;10.238;2022-12-18T01:11:40;25.73;;;12.17;;
3881;SDS011;1956;53.482;10.238;2022-12-18T01:16:41;28.10;;;12.77;;
3881;SDS011;1956;53.482;10.238;2022-12-18T01:21:41;22.83;;;12.53;;
3881;SDS011;1956;53.482;10.238;2022-12-18T01:26:42;26.93;;;13.03;;
3881;SDS011;1956;53.482;10.238;2022-12-18T01:31:42;23.13;;;12.00;;
3881;SDS011;1956;53.482;10.238;2022-12-18T01:36:42;18.17;;;11.00;;
3881;SDS011;1956;53.482;10.238;2022-12-18T01:41:43;19.80;;;11.70;;
3881;SDS011;1956;53.482;10.238;2022-12-18T01:47:03;22.07;;;11.23;;
3881;SDS011;1956;53.482;10.238;2022-12-18T01:52:03;20.73;;;11.40;;
3881;SDS011;1956;53.482;10.238;2022-12-18T01:57:04;23.43;;;12.03;;
3881;SDS011;1956;53.482;10.238;2022-12-18T02:02:04;18.27;;;10.63;;
3881;SDS011;1956;53.482;10.238;2022-12-18T02:13:06;20.37;;;10.30;;
3881;SDS011;1956;53.482;10.238;2022-12-18T02:18:21;18.37;;;11.17;;
3881;SDS011;1956;53.482;10.238;2022-12-18T02:23:29;20.07;;;10.50;;
3881;SDS011;1956;53.482;10.238;2022-12-18T02:29:22;17.67;;;11.20;;
3881;SDS011;1956;53.482;10.238;2022-12-18T02:34:16;20.57;;;9.87;;
3881;SDS011;1956;53.482;10.238;2022-12-18T02:39:17;15.03;;;10.33;;
3881;SDS011;1956;53.482;10.238;2022-12-18T02:44:20;20.20;;;10.30;;
3881;SDS011;1956;53.482;10.238;2022-12-18T03:01:00;24.10;;;10.97;;
3881;SDS011;1956;53.482;10.238;2022-12-18T03:11:32;18.30;;;10.00;;
3881;SDS011;1956;53.482;10.238;2022-12-18T03:16:53;19.80;;;10.70;;
3881;SDS011;1956;53.482;10.238;2022-12-18T03:21:55;21.37;;;11.43;;
3881;SDS011;1956;53.482;10.238;2022-12-18T03:27:00;17.40;;;10.50;;
3881;SDS011;1956;53.482;10.238;2022-12-18T03:32:04;15.90;;;9.93;;
3881;SDS011;1956;53.482;10.238;2022-12-18T03:37:08;26.03;;;10.10;;
3881;SDS011;1956;53.482;10.238;2022-12-18T03:42:51;17.20;;;10.00;;
3881;SDS011;1956;53.482;10.238;2022-12-18T03:58:31;20.73;;;10.40;;
3881;SDS011;1956;53.482;10.238;2022-12-18T04:03:32;16.07;;;9.77;;
3881;SDS011;1956;53.482;10.238;2022-12-18T04:08:34;16.97;;;9.70;;
3881;SDS011;1956;53.482;10.238;2022-12-18T04:13:35;17.90;;;10.43;;
3881;SDS011;1956;53.482;10.238;2022-12-18T04:18:36;31.77;;;12.47;;
3881;SDS011;1956;53.482;10.238;2022-12-18T04:23:37;30.00;;;12.33;;
3881;SDS011;1956;53.482;10.238;2022-12-18T04:28:37;28.83;;;12.10;;
3881;SDS011;1956;53.482;10.238;2022-12-18T04:33:38;17.43;;;10.97;;
3881;SDS011;1956;53.482;10.238;2022-12-18T04:38:38;25.13;;;12.13;;
3881;SDS011;1956;53.482;10.238;2022-12-18T04:43:38;27.90;;;11.30;;
3881;SDS011;1956;53.482;10.238;2022-12-18T04:48:39;22.50;;;11.87;;
3881;SDS011;1956;53.482;10.238;2022-12-18T04:53:39;23.57;;;13.70;;
3881;SDS011;1956;53.482;10.238;2022-12-18T04:58:40;26.10;;;12.40;;
3881;SDS011;1956;53.482;10.238;2022-12-18T05:03:41;24.27;;;11.67;;
3881;SDS011;1956;53.482;10.238;2022-12-18T05:08:42;24.13;;;12.53;;
3881;SDS011;1956;53.482;10.238;2022-12-18T05:13:42;21.93;;;12.00;;
3881;SDS011;1956;53.482;10.238;2022-12-18T05:18:44;21.90;;;10.73;;
3881;SDS011;1956;53.482;10.238;2022-12-18T05:23:44;24.30;;;11.63;;
3881;SDS011;1956;53.482;10.238;2022-12-18T05:28:45;25.70;;;14.17;;
3881;SDS011;1956;53.482;10.238;2022-12-18T05:33:45;22.83;;;12.83;;
3881;SDS011;1956;53.482;10.238;2022-12-18T05:38:49;22.57;;;12.10;;
3881;SDS011;1956;53.482;10.238;2022-12-18T05:43:49;24.40;;;11.80;;
3881;SDS011;1956;53.482;10.238;2022-12-18T05:48:49;25.27;;;13.67;;
3881;SDS011;1956;53.482;10.238;2022-12-18T05:53:50;26.23;;;13.03;;
3881;SDS011;1956;53.482;10.238;2022-12-18T05:58:51;24.07;;;12.60;;
3881;SDS011;1956;53.482;10.238;2022-12-18T06:03:53;29.30;;;13.30;;
3881;SDS011;1956;53.482;10.238;2022-12-18T06:08:54;20.23;;;11.93;;
3881;SDS011;1956;53.482;10.238;2022-12-18T06:13:55;25.10;;;13.80;;
3881;SDS011;1956;53.482;10.238;2022-12-18T06:18:56;35.03;;;15.00;;
3881;SDS011;1956;53.482;10.238;2022-12-18T06:24:00;27.10;;;15.17;;
3881;SDS011;1956;53.482;10.238;2022-12-18T06:29:00;29.40;;;14.37;;
3881;SDS011;1956;53.482;10.238;2022-12-18T06:34:02;49.70;;;19.67;;
3881;SDS011;1956;53.482;10.238;2022-12-18T06:39:03;32.53;;;16.07;;
3881;SDS011;1956;53.482;10.238;2022-12-18T06:44:03;34.73;;;17.87;;
3881;SDS011;1956;53.482;10.238;2022-12-18T06:49:06;38.07;;;16.03;;
3881;SDS011;1956;53.482;10.238;2022-12-18T06:54:09;25.57;;;14.13;;
3881;SDS011;1956;53.482;10.238;2022-12-18T06:59:09;29.57;;;13.70;;
3881;SDS011;1956;53.482;10.238;2022-12-18T07:04:09;32.47;;;15.27;;
3881;SDS011;1956;53.482;10.238;2022-12-18T07:09:10;26.20;;;13.00;;
3881;SDS011;1956;53.482;10.238;2022-12-18T07:14:10;32.13;;;15.10;;
3881;SDS011;1956;53.482;10.238;2022-12-18T07:19:10;29.30;;;14.10;;
3881;SDS011;1956;53.482;10.238;2022-12-18T07:24:11;25.60;;;13.50;;
3881;SDS011;1956;53.482;10.238;2022-12-18T07:29:11;27.57;;;14.10;;
3881;SDS011;1956;53.482;10.238;2022-12-18T07:34:12;30.87;;;13.53;;
3881;SDS011;1956;53.482;10.238;2022-12-18T07:39:13;32.30;;;15.50;;
3881;SDS011;1956;53.482;10.238;2022-12-18T07:44:13;28.17;;;15.47;;
3881;SDS011;1956;53.482;10.238;2022-12-18T07:49:13;30.53;;;13.77;;
3881;SDS011;1956;53.482;10.238;2022-12-18T07:54:14;33.80;;;15.23;;
3881;SDS011;1956;53.482;10.238;2022-12-18T07:59:14;28.37;;;14.47;;
3881;SDS011;1956;53.482;10.238;2022-12-18T08:04:15;34.50;;;15.00;;
3881;SDS011;1956;53.482;10.238;2022-12-18T08:09:15;32.03;;;13.90;;
3881;SDS011;1956;53.482;10.238;2022-12-18T08:14:16;30.60;;;13.67;;
3881;SDS011;1956;53.482;10.238;2022-12-18T08:19:16;30.43;;;13.50;;
3881;SDS011;1956;53.482;10.238;2022-12-18T08:24:16;25.40;;;13.33;;
3881;SDS011;1956;53.482;10.238;2022-12-18T08:29:17;36.00;;;15.70;;
3881;SDS011;1956;53.482;10.238;2022-12-18T08:34:17;27.33;;;13.63;;
3881;SDS011;1956;53.482;10.238;2022-12-18T08:39:18;29.10;;;13.87;;
3881;SDS011;1956;53.482;10.238;2022-12-18T08:44:18;25.57;;;13.70;;
3881;SDS011;1956;53.482;10.238;2022-12-18T08:49:37;31.00;;;14.60;;
3881;SDS011;1956;53.482;10.238;2022-12-18T08:54:37;36.27;;;14.73;;
3881;SDS011;1956;53.482;10.238;2022-12-18T08:59:38;33.53;;;14.70;;
3881;SDS011;1956;53.482;10.238;2022-12-18T09:04:38;29.70;;;14.20;;
3881;SDS011;1956;53.482;10.238;2022-12-18T09:09:39;30.37;;;14.70;;
3881;SDS011;1956;53.482;10.238;2022-12-18T09:14:40;31.47;;;14.10;;
3881;SDS011;1956;53.482;10.238;2022-12-18T09:19:40;25.75;;;14.88;;
3881;SDS011;1956;53.482;10.238;2022-12-18T09:24:40;34.87;;;14.87;;
3881;SDS011;1956;53.482;10.238;2022-12-18T09:29:41;33.30;;;15.57;;
3881;SDS011;1956;53.482;10.238;2022-12-18T09:34:41;30.10;;;15.70;;
3881;SDS011;1956;53.482;10.238;2022-12-18T09:39:42;44.30;;;17.03;;
3881;SDS011;1956;53.482;10.238;2022-12-18T09:44:43;40.20;;;16.53;;
3881;SDS011;1956;53.482;10.238;2022-12-18T09:49:47;31.77;;;15.77;;
3881;SDS011;1956;53.482;10.238;2022-12-18T09:55:01;37.40;;;17.53;;
3881;SDS011;1956;53.482;10.238;2022-12-18T10:00:15;34.90;;;15.27;;
3881;SDS011;1956;53.482;10.238;2022-12-18T10:05:29;29.67;;;14.23;;
3881;SDS011;1956;53.482;10.238;2022-12-18T10:10:39;31.00;;;15.60;;
3881;SDS011;1956;53.482;10.238;2022-12-18T10:27:16;32.57;;;15.60;;
3881;SDS011;1956;53.482;10.238;2022-12-18T10:32:21;33.47;;;16.10;;
3881;SDS011;1956;53.482;10.238;2022-12-18T10:37:27;32.87;;;16.87;;
3881;SDS011;1956;53.482;10.238;2022-12-18T10:42:28;33.40;;;16.27;;
3881;SDS011;1956;53.482;10.238;2022-12-18T10:47:29;33.17;;;15.70;;
3881;SDS011;1956;53.482;10.238;2022-12-18T10:52:29;35.20;;;17.10;;
3881;SDS011;1956;53.482;10.238;2022-12-18T10:57:31;29.30;;;16.10;;
3881;SDS011;1956;53.482;10.238;2022-12-18T11:02:37;34.60;;;16.80;;
3881;SDS011;1956;53.482;10.238;2022-12-18T11:07:46;37.40;;;17.00;;
3881;SDS011;1956;53.482;10.238;2022-12-18T11:12:49;34.40;;;17.40;;
3881;SDS011;1956;53.482;10.238;2022-12-18T11:17:49;44.57;;;17.13;;
3881;SDS011;1956;53.482;10.238;2022-12-18T11:22:54;35.03;;;17.73;;
3881;SDS011;1956;53.482;10.238;2022-12-18T11:27:58;29.90;;;16.00;;
3881;SDS011;1956;53.482;10.238;2022-12-18T11:33:19;31.73;;;15.97;;
3881;SDS011;1956;53.482;10.238;2022-12-18T11:38:24;32.60;;;14.87;;
3881;SDS011;1956;53.482;10.238;2022-12-18T11:43:28;30.77;;;15.00;;
3881;SDS011;1956;53.482;10.238;2022-12-18T11:48:40;34.77;;;15.07;;
3881;SDS011;1956;53.482;10.238;2022-12-18T11:53:44;27.10;;;13.87;;
3881;SDS011;1956;53.482;10.238;2022-12-18T11:58:50;33.90;;;14.60;;
3881;SDS011;1956;53.482;10.238;2022-12-18T12:20:58;31.70;;;15.00;;
3881;SDS011;1956;53.482;10.238;2022-12-18T12:26:06;34.67;;;16.50;;
3881;SDS011;1956;53.482;10.238;2022-12-18T12:31:17;32.90;;;14.37;;
3881;SDS011;1956;53.482;10.238;2022-12-18T12:42:41;22.03;;;11.00;;
3881;SDS011;1956;53.482;10.238;2022-12-18T12:48:03;23.83;;;12.13;;
3881;SDS011;1956;53.482;10.238;2022-12-18T12:53:06;24.87;;;12.00;;
3881;SDS011;1956;53.482;10.238;2022-12-18T13:09:32;24.40;;;13.13;;
3881;SDS011;1956;53.482;10.238;2022-12-18T13:14:34;24.10;;;11.80;;
3881;SDS011;1956;53.482;10.238;2022-12-18T13:19:36;23.80;;;10.30;;
3881;SDS011;1956;53.482;10.238;2022-12-18T13:24:37;27.43;;;12.40;;
3881;SDS011;1956;53.482;10.238;2022-12-18T13:29:41;24.87;;;12.10;;
3881;SDS011;1956;53.482;10.238;2022-12-18T13:34:45;22.40;;;11.37;;
3881;SDS011;1956;53.482;10.238;2022-12-18T13:39:45;28.07;;;12.03;;
3881;SDS011;1956;53.482;10.238;2022-12-18T13:44:46;29.73;;;13.47;;
3881;SDS011;1956;53.482;10.238;2022-12-18T13:49:47;27.43;;;12.97;;
3881;SDS011;1956;53.482;10.238;2022-12-18T13:54:51;27.90;;;13.60;;
3881;SDS011;1956;53.482;10.238;2022-12-18T13:59:52;28.90;;;13.20;;
3881;SDS011;1956;53.482;10.238;2022-12-18T14:04:53;27.40;;;12.00;;
3881;SDS011;1956;53.482;10.238;2022-12-18T14:09:55;39.67;;;14.00;;
3881;SDS011;1956;53.482;10.238;2022-12-18T14:15:00;28.33;;;13.03;;
3881;SDS011;1956;53.482;10.238;2022-12-18T14:20:01;26.87;;;12.47;;
3881;SDS011;1956;53.482;10.238;2022-12-18T14:25:21;35.17;;;15.50;;
3881;SDS011;1956;53.482;10.238;2022-12-18T14:30:33;29.77;;;12.43;;
3881;SDS011;1956;53.482;10.238;2022-12-18T14:35:38;31.60;;;12.43;;
3881;SDS011;1956;53.482;10.238;2022-12-18T14:40:39;29.43;;;14.23;;
3881;SDS011;1956;53.482;10.238;2022-12-18T14:45:43;38.80;;;13.80;;
3881;SDS011;1956;53.482;10.238;2022-12-18T14:50:44;30.60;;;13.43;;
3881;SDS011;1956;53.482;10.238;2022-12-18T14:55:46;27.80;;;13.03;;
3881;SDS011;1956;53.482;10.238;2022-12-18T15:00:47;40.83;;;15.77;;
3881;SDS011;1956;53.482;10.238;2022-12-18T15:05:48;49.90;;;14.77;;
3881;SDS011;1956;53.482;10.238;2022-12-18T15:10:48;24.83;;;12.60;;
3881;SDS011;1956;53.482;10.238;2022-12-18T15:15:48;29.23;;;12.27;;
3881;SDS011;1956;53.482;10.238;2022-12-18T15:20:50;24.70;;;11.93;;
3881;SDS011;1956;53.482;10.238;2022-12-18T15:25:58;39.57;;;19.07;;
3881;SDS011;1956;53.482;10.238;2022-12-18T15:36:30;33.17;;;14.33;;
3881;SDS011;1956;53.482;10.238;2022-12-18T15:41:31;36.77;;;15.70;;
3881;SDS011;1956;53.482;10.238;2022-12-18T15:46:36;34.57;;;15.53;;
3881;SDS011;1956;53.482;10.238;2022-12-18T15:51:36;38.77;;;18.00;;
3881;SDS011;1956;53.482;10.238;2022-12-18T15:56:37;31.30;;;14.37;;
3881;SDS011;1956;53.482;10.238;2022-12-18T16:01:56;30.87;;;14.50;;
3881;SDS011;1956;53.482;10.238;2022-12-18T16:06:56;35.30;;;14.40;;
3881;SDS011;1956;53.482;10.238;2022-12-18T16:11:57;37.77;;;14.40;;
3881;SDS011;1956;53.482;10.238;2022-12-18T16:17:01;36.27;;;14.80;;
3881;SDS011;1956;53.482;10.238;2022-12-18T16:22:03;29.63;;;12.97;;
3881;SDS011;1956;53.482;10.238;2022-12-18T16:27:03;25.93;;;13.37;;
3881;SDS011;1956;53.482;10.238;2022-12-18T16:32:04;39.27;;;14.43;;
3881;SDS011;1956;53.482;10.238;2022-12-18T16:37:05;31.10;;;13.70;;
3881;SDS011;1956;53.482;10.238;2022-12-18T16:42:10;33.73;;;14.40;;
3881;SDS011;1956;53.482;10.238;2022-12-18T16:47:16;41.27;;;13.90;;
3881;SDS011;1956;53.482;10.238;2022-12-18T16:52:16;27.87;;;12.70;;
3881;SDS011;1956;53.482;10.238;2022-12-18T16:57:17;38.00;;;14.13;;
3881;SDS011;1956;53.482;10.238;2022-12-18T17:02:20;25.83;;;13.37;;
3881;SDS011;1956;53.482;10.238;2022-12-18T17:07:21;27.40;;;12.57;;
3881;SDS011;1956;53.482;10.238;2022-12-18T17:12:23;29.77;;;14.07;;
3881;SDS011;1956;53.482;10.238;2022-12-18T17:17:23;30.83;;;13.30;;
3881;SDS011;1956;53.482;10.238;2022-12-18T17:22:23;27.73;;;13.60;;
3881;SDS011;1956;53.482;10.238;2022-12-18T17:27:24;31.20;;;13.00;;
3881;SDS011;1956;53.482;10.238;2022-12-18T17:32:24;28.53;;;12.13;;
3881;SDS011;1956;53.482;10.238;2022-12-18T17:37:24;29.30;;;13.20;;
3881;SDS011;1956;53.482;10.238;2022-12-18T17:42:25;35.57;;;13.53;;
3881;SDS011;1956;53.482;10.238;2022-12-18T17:47:25;21.93;;;12.30;;
3881;SDS011;1956;53.482;10.238;2022-12-18T17:52:26;30.53;;;14.93;;
3881;SDS011;1956;53.482;10.238;2022-12-18T17:57:26;30.60;;;12.90;;
3881;SDS011;1956;53.482;10.238;2022-12-18T18:02:26;27.70;;;13.93;;
3881;SDS011;1956;53.482;10.238;2022-12-18T18:07:27;21.37;;;10.97;;
3881;SDS011;1956;53.482;10.238;2022-12-18T18:12:27;27.53;;;13.40;;
3881;SDS011;1956;53.482;10.238;2022-12-18T18:17:46;25.00;;;12.37;;
3881;SDS011;1956;53.482;10.238;2022-12-18T18:22:46;19.20;;;10.20;;
3881;SDS011;1956;53.482;10.238;2022-12-18T18:27:46;28.73;;;11.90;;
3881;SDS011;1956;53.482;10.238;2022-12-18T18:32:47;17.97;;;11.00;;
3881;SDS011;1956;53.482;10.238;2022-12-18T18:37:47;23.23;;;9.73;;
3881;SDS011;1956;53.482;10.238;2022-12-18T18:42:48;19.73;;;11.80;;
3881;SDS011;1956;53.482;10.238;2022-12-18T18:47:48;24.03;;;10.23;;
3881;SDS011;1956;53.482;10.238;2022-12-18T18:52:49;22.30;;;11.77;;
3881;SDS011;1956;53.482;10.238;2022-12-18T18:57:49;21.40;;;10.17;;
3881;SDS011;1956;53.482;10.238;2022-12-18T19:02:49;24.20;;;10.30;;
3881;SDS011;1956;53.482;10.238;2022-12-18T19:07:50;17.83;;;9.97;;
3881;SDS011;1956;53.482;10.238;2022-12-18T19:12:50;18.20;;;10.13;;
3881;SDS011;1956;53.482;10.238;2022-12-18T19:18:09;19.10;;;10.17;;
3881;SDS011;1956;53.482;10.238;2022-12-18T19:23:09;20.20;;;11.20;;
3881;SDS011;1956;53.482;10.238;2022-12-18T19:28:10;21.20;;;10.60;;
3881;SDS011;1956;53.482;10.238;2022-12-18T19:33:10;25.13;;;11.40;;
3881;SDS011;1956;53.482;10.238;2022-12-18T19:38:11;22.20;;;10.97;;
3881;SDS011;1956;53.482;10.238;2022-12-18T19:43:12;19.80;;;10.57;;
3881;SDS011;1956;53.482;10.238;2022-12-18T19:48:12;21.30;;;11.10;;
3881;SDS011;1956;53.482;10.238;2022-12-18T19:53:12;19.93;;;11.00;;
3881;SDS011;1956;53.482;10.238;2022-12-18T20:03:23;25.03;;;10.67;;
3881;SDS011;1956;53.482;10.238;2022-12-18T20:08:23;25.37;;;11.57;;
3881;SDS011;1956;53.482;10.238;2022-12-18T20:13:24;25.00;;;11.50;;
3881;SDS011;1956;53.482;10.238;2022-12-18T20:18:24;24.97;;;12.00;;
3881;SDS011;1956;53.482;10.238;2022-12-18T20:23:25;25.20;;;12.57;;
3881;SDS011;1956;53.482;10.238;2022-12-18T20:28:25;21.37;;;10.77;;
3881;SDS011;1956;53.482;10.238;2022-12-18T20:33:26;23.77;;;11.13;;
3881;SDS011;1956;53.482;10.238;2022-12-18T20:38:27;27.40;;;11.73;;
3881;SDS011;1956;53.482;10.238;2022-12-18T20:43:28;25.30;;;12.70;;
3881;SDS011;1956;53.482;10.238;2022-12-18T20:48:30;21.20;;;11.50;;
3881;SDS011;1956;53.482;10.238;2022-12-18T20:53:31;23.10;;;12.60;;
3881;SDS011;1956;53.482;10.238;2022-12-18T20:58:32;23.00;;;11.77;;
3881;SDS011;1956;53.482;10.238;2022-12-18T21:03:32;16.43;;;7.83;;
3881;SDS011;1956;53.482;10.238;2022-12-18T21:08:36;24.63;;;12.73;;
3881;SDS011;1956;53.482;10.238;2022-12-18T21:13:36;24.40;;;12.40;;
3881;SDS011;1956;53.482;10.238;2022-12-18T21:18:37;23.63;;;12.03;;
3881;SDS011;1956;53.482;10.238;2022-12-18T21:23:37;20.30;;;11.40;;
3881;SDS011;1956;53.482;10.238;2022-12-18T21:28:37;23.13;;;12.57;;
3881;SDS011;1956;53.482;10.238;2022-12-18T21:33:38;23.07;;;11.67;;
3881;SDS011;1956;53.482;10.238;2022-12-18T21:38:38;26.10;;;12.97;;
3881;SDS011;1956;53.482;10.238;2022-12-18T21:43:39;27.53;;;12.80;;
3881;SDS011;1956;53.482;10.238;2022-12-18T21:48:58;27.50;;;13.37;;
3881;SDS011;1956;53.482;10.238;2022-12-18T21:53:59;24.47;;;11.93;;
3881;SDS011;1956;53.482;10.238;2022-12-18T21:59:00;30.60;;;13.47;;
3881;SDS011;1956;53.482;10.238;2022-12-18T22:04:00;20.80;;;11.53;;
3881;SDS011;1956;53.482;10.238;2022-12-18T22:09:01;23.00;;;12.53;;
3881;SDS011;1956;53.482;10.238;2022-12-18T22:14:01;24.13;;;12.27;;
3881;SDS011;1956;53.482;10.238;2022-12-18T22:19:02;33.17;;;13.70;;
3881;SDS011;1956;53.482;10.238;2022-12-18T22:24:06;23.13;;;11.70;;
3881;SDS011;1956;53.482;10.238;2022-12-18T22:29:12;29.00;;;13.63;;
3881;SDS011;1956;53.482;10.238;2022-12-18T22:34:32;22.77;;;12.87;;
3881;SDS011;1956;53.482;10.238;2022-12-18T22:39:33;23.50;;;13.07;;
3881;SDS011;1956;53.482;10.238;2022-12-18T22:44:33;24.10;;;11.67;;
3881;SDS011;1956;53.482;10.238;2022-12-18T22:49:34;25.70;;;13.63;;
3881;SDS011;1956;53.482;10.238;2022-12-18T22:54:34;24.80;;;12.90;;
3881;SDS011;1956;53.482;10.238;2022-12-18T22:59:35;27.77;;;13.07;;
3881;SDS011;1956;53.482;10.238;2022-12-18T23:04:35;24.33;;;12.10;;
3881;SDS011;1956;53.482;10.238;2022-12-18T23:09:35;27.17;;;13.13;;
3881;SDS011;1956;53.482;10.238;2022-12-18T23:14:36;33.60;;;14.20;;
3881;SDS011;1956;53.482;10.238;2022-12-18T23:19:36;29.13;;;13.47;;
3881;SDS011;1956;53.482;10.238;2022-12-18T23:24:37;28.33;;;12.73;;
3881;SDS011;1956;53.482;10.238;2022-12-18T23:29:37;28.07;;;12.90;;
3881;SDS011;1956;53.482;10.238;2022-12-18T23:34:38;21.73;;;12.83;;
3881;SDS011;1956;53.482;10.238;2022-12-18T23:39:38;31.73;;;14.63;;
3881;SDS011;1956;53.482;10.238;2022-12-18T23:44:39;28.00;;;13.77;;
3881;SDS011;1956;53.482;10.238;2022-12-18T23:49:39;18.90;;;11.40;;
3881;SDS011;1956;53.482;10.238;2022-12-18T23:54:39;29.90;;;14.20;;
3881;SDS011;1956;53.482;10.238;2022-12-18T23:59:41;25.47;;;12.60;;
